Terminal Aerodrome Forecast
Issued by NWS Charleston, WV

Current Version | Previous Version | Graphics & Text | Print | Product List | Glossary On
Versions: 1 2 3 4 5 6 7 8 9 10 11 12 13 14 15 16 17 18 19 20
000
FTUS41 KRLX 171600 AAA
TAFPKB
TAF AMD
KPKB 171605Z 1716/1812 25008G15KT P6SM -SHSNDZ OVC025
     FM171800 26009KT P6SM OVC023=

USA.gov is the U.S. government's official web portal to all federal, state and local government web resources and services.